createdAt,value
2018-08-14T00:02:15.708Z,15.70
2018-08-14T00:04:47.896Z,15.70
2018-08-14T00:07:20.445Z,15.70
2018-08-14T00:09:52.339Z,15.70
2018-08-14T00:12:24.289Z,15.60
2018-08-14T00:14:56.018Z,15.70
2018-08-14T00:17:28.467Z,15.70
2018-08-14T00:20:00.531Z,15.60
2018-08-14T00:22:33.501Z,15.60
2018-08-14T00:25:06.322Z,15.60
2018-08-14T00:27:39.166Z,15.60
2018-08-14T00:30:17.881Z,15.60
2018-08-14T00:32:50.056Z,15.50
2018-08-14T00:35:23.076Z,15.50
2018-08-14T00:37:55.275Z,15.50
2018-08-14T00:40:29.360Z,15.50
2018-08-14T00:43:03.202Z,15.40
2018-08-14T00:45:35.555Z,15.50
2018-08-14T00:48:08.690Z,15.50
2018-08-14T00:50:40.666Z,15.40
2018-08-14T00:53:13.142Z,15.40
2018-08-14T00:55:45.126Z,15.40
2018-08-14T00:58:17.158Z,15.40
2018-08-14T01:00:49.065Z,15.30
2018-08-14T01:03:20.927Z,15.30
2018-08-14T01:05:53.290Z,15.30
2018-08-14T01:08:25.619Z,15.20
2018-08-14T01:10:57.983Z,15.20
2018-08-14T01:13:31.392Z,15.10
2018-08-14T01:16:04.167Z,15.20
2018-08-14T01:18:36.328Z,15.10
2018-08-14T01:21:08.263Z,15.10
2018-08-14T01:23:40.635Z,15.10
2018-08-14T01:26:12.606Z,15.10
2018-08-14T01:28:46.455Z,15.10
2018-08-14T01:31:18.741Z,15.10
2018-08-14T01:33:51.518Z,15.10
2018-08-14T01:36:23.395Z,15.10
2018-08-14T01:38:57.131Z,15.10
2018-08-14T01:41:29.071Z,15.10
2018-08-14T01:44:00.969Z,15.10
2018-08-14T01:46:32.910Z,15.00
2018-08-14T01:49:05.250Z,14.90
2018-08-14T01:51:37.204Z,14.90
2018-08-14T01:54:09.993Z,14.90
2018-08-14T01:56:41.753Z,14.90
2018-08-14T01:59:14.738Z,15.00
2018-08-14T02:01:47.126Z,14.90
2018-08-14T02:04:18.987Z,15.00
2018-08-14T02:06:50.916Z,15.00
2018-08-14T02:09:22.647Z,15.00
2018-08-14T02:11:54.753Z,15.00
2018-08-14T02:14:26.756Z,14.90
2018-08-14T02:16:59.022Z,14.90
2018-08-14T02:19:30.983Z,14.90
2018-08-14T02:22:03.019Z,14.90
2018-08-14T02:24:34.928Z,14.90
2018-08-14T02:27:07.233Z,14.90
2018-08-14T02:29:39.547Z,14.90
2018-08-14T02:32:11.321Z,14.80
2018-08-14T02:34:43.053Z,14.80
2018-08-14T02:37:14.695Z,14.70
2018-08-14T02:39:46.974Z,14.70
2018-08-14T02:42:18.790Z,14.70
2018-08-14T02:44:50.564Z,14.70
2018-08-14T02:47:22.484Z,14.70
2018-08-14T02:49:54.384Z,14.70
2018-08-14T02:52:26.737Z,14.70
2018-08-14T02:54:58.946Z,14.80
2018-08-14T02:57:31.178Z,14.80
2018-08-14T03:00:03.504Z,14.80
2018-08-14T03:02:35.919Z,14.70
2018-08-14T03:05:08.016Z,14.70
2018-08-14T03:07:39.919Z,14.60
2018-08-14T03:10:13.169Z,14.50
2018-08-14T03:12:45.476Z,14.60
2018-08-14T03:15:21.564Z,14.50
2018-08-14T03:17:55.935Z,14.40
2018-08-14T03:20:27.995Z,14.40
2018-08-14T03:23:00.063Z,14.40
2018-08-14T03:25:32.415Z,14.50
2018-08-14T03:28:04.347Z,14.40
2018-08-14T03:30:36.594Z,14.40
2018-08-14T03:33:09.105Z,14.40
2018-08-14T03:35:40.962Z,14.40
2018-08-14T03:38:13.333Z,14.40
2018-08-14T03:40:45.394Z,14.40
2018-08-14T03:43:18.542Z,14.40
2018-08-14T03:45:50.523Z,14.50
2018-08-14T03:48:22.584Z,14.50
2018-08-14T03:50:54.677Z,14.50
2018-08-14T03:53:26.789Z,14.60
2018-08-14T03:55:58.834Z,14.60
2018-08-14T03:58:32.338Z,14.60
2018-08-14T04:01:04.209Z,14.60
2018-08-14T04:03:36.131Z,14.60
2018-08-14T04:06:08.042Z,14.60
2018-08-14T04:08:40.050Z,14.60
2018-08-14T04:11:12.454Z,14.70
2018-08-14T04:13:46.773Z,14.70
2018-08-14T04:16:18.744Z,14.70
2018-08-14T04:18:52.277Z,14.80
2018-08-14T04:21:25.109Z,14.90
2018-08-14T04:23:57.597Z,15.00
2018-08-14T04:26:30.250Z,15.00
2018-08-14T04:29:03.102Z,15.00
2018-08-14T04:31:36.107Z,15.10
2018-08-14T04:34:08.461Z,15.30
2018-08-14T04:36:41.429Z,15.40
2018-08-14T04:39:13.477Z,15.50
2018-08-14T04:41:45.661Z,15.70
2018-08-14T04:44:18.638Z,15.80
2018-08-14T04:46:51.467Z,16.00
2018-08-14T04:49:23.866Z,16.10
2018-08-14T04:51:55.920Z,16.20
2018-08-14T04:54:27.947Z,16.40
2018-08-14T04:56:59.930Z,16.60
2018-08-14T04:59:31.945Z,16.80
2018-08-14T05:02:04.713Z,17.00
2018-08-14T05:04:36.914Z,17.10
2018-08-14T05:07:08.994Z,17.30
2018-08-14T05:09:41.270Z,17.50
2018-08-14T05:12:14.516Z,17.70
2018-08-14T05:14:46.808Z,17.90
2018-08-14T05:17:18.955Z,18.10
2018-08-14T05:19:51.397Z,18.30
2018-08-14T05:22:23.744Z,18.40
2018-08-14T05:24:55.883Z,18.50
2018-08-14T05:27:28.213Z,18.70
2018-08-14T05:30:00.477Z,18.80
2018-08-14T05:32:32.777Z,19.00
2018-08-14T05:35:06.072Z,19.20
2018-08-14T05:37:38.432Z,19.30
2018-08-14T05:40:10.711Z,19.50
2018-08-14T05:42:44.180Z,19.60
2018-08-14T05:45:16.997Z,19.80
2018-08-14T05:47:49.115Z,19.90
2018-08-14T05:50:21.440Z,20.10
2018-08-14T05:52:53.365Z,20.20
2018-08-14T05:55:25.390Z,20.30
2018-08-14T05:57:57.468Z,20.40
2018-08-14T06:00:29.821Z,20.50
2018-08-14T06:03:02.092Z,20.70
2018-08-14T06:05:33.879Z,20.90
2018-08-14T06:08:05.558Z,21.00
2018-08-14T06:10:38.181Z,21.20
2018-08-14T06:13:11.508Z,21.40
2018-08-14T06:15:43.656Z,21.50
2018-08-14T06:18:15.564Z,21.70
2018-08-14T06:20:47.734Z,21.80
2018-08-14T06:23:19.899Z,21.90
2018-08-14T06:25:51.841Z,22.00
2018-08-14T06:28:23.935Z,22.20
2018-08-14T06:30:55.953Z,22.30
2018-08-14T06:33:29.041Z,22.40
2018-08-14T06:36:01.199Z,22.50
2018-08-14T06:38:33.334Z,22.60
2018-08-14T06:41:06.464Z,22.80
2018-08-14T06:43:38.634Z,23.00
2018-08-14T06:46:10.932Z,23.00
2018-08-14T06:48:44.355Z,22.80
2018-08-14T06:51:16.793Z,22.80
2018-08-14T06:53:48.877Z,23.00
2018-08-14T06:56:20.999Z,23.10
2018-08-14T06:58:53.731Z,23.00
2018-08-14T07:01:26.077Z,23.00
2018-08-14T07:03:58.275Z,23.00
2018-08-14T07:06:30.598Z,23.20
2018-08-14T07:09:02.913Z,23.30
2018-08-14T07:11:35.410Z,23.30
2018-08-14T07:14:09.922Z,23.30
2018-08-14T07:16:42.144Z,23.40
2018-08-14T07:19:14.844Z,23.20
2018-08-14T07:21:47.001Z,23.30
2018-08-14T07:24:19.167Z,23.40
2018-08-14T07:26:51.718Z,23.50
2018-08-14T07:29:24.371Z,23.60
2018-08-14T07:31:56.965Z,23.80
2018-08-14T07:34:29.039Z,24.00
2018-08-14T07:37:01.012Z,24.10
2018-08-14T07:39:33.392Z,24.30
2018-08-14T07:42:05.638Z,24.30
2018-08-14T07:44:38.831Z,24.40
2018-08-14T07:47:11.019Z,24.50
2018-08-14T07:49:43.059Z,24.60
2018-08-14T07:52:16.525Z,24.50
2018-08-14T07:54:49.818Z,24.50
2018-08-14T07:57:22.957Z,24.70
2018-08-14T07:59:55.557Z,25.00
2018-08-14T08:02:27.540Z,25.10
2018-08-14T08:05:00.135Z,25.20
2018-08-14T08:07:32.371Z,25.20
2018-08-14T08:10:05.243Z,25.20
2018-08-14T08:12:37.750Z,25.30
2018-08-14T08:15:12.958Z,25.40
2018-08-14T08:17:46.829Z,25.70
2018-08-14T08:20:32.786Z,25.90
2018-08-14T08:23:06.414Z,26.00
2018-08-14T08:25:39.012Z,26.10
2018-08-14T08:28:11.127Z,26.30
2018-08-14T08:30:43.387Z,26.40
2018-08-14T08:33:15.510Z,26.60
2018-08-14T08:35:47.610Z,26.40
2018-08-14T08:38:20.030Z,26.50
2018-08-14T08:40:52.689Z,26.50
2018-08-14T08:43:24.917Z,26.60
2018-08-14T08:45:57.164Z,26.80
2018-08-14T08:48:29.647Z,27.00
2018-08-14T08:51:02.049Z,26.90
2018-08-14T08:53:34.103Z,26.70
2018-08-14T08:56:06.616Z,26.90
2018-08-14T08:58:38.763Z,27.00
2018-08-14T09:01:11.008Z,27.20
2018-08-14T09:03:43.383Z,27.40
2018-08-14T09:06:15.468Z,27.40
2018-08-14T09:08:47.744Z,27.60
2018-08-14T09:11:19.906Z,27.70
2018-08-14T09:13:52.798Z,27.70
2018-08-14T09:16:24.788Z,27.70
2018-08-14T09:18:56.918Z,27.80
2018-08-14T09:21:29.258Z,28.00
2018-08-14T09:24:01.998Z,28.10
2018-08-14T09:26:34.288Z,28.20
2018-08-14T09:29:06.505Z,28.20
2018-08-14T09:31:38.812Z,28.30
2018-08-14T09:34:10.846Z,28.40
2018-08-14T09:36:43.330Z,28.40
2018-08-14T09:39:15.365Z,28.30
2018-08-14T09:41:47.802Z,28.40
2018-08-14T09:44:20.424Z,28.30
2018-08-14T09:46:52.814Z,28.40
2018-08-14T09:49:24.778Z,28.50
2018-08-14T09:51:56.819Z,28.50
2018-08-14T09:54:29.672Z,28.50
2018-08-14T09:57:02.027Z,28.60
2018-08-14T09:59:34.184Z,28.60
2018-08-14T10:02:11.642Z,28.80
2018-08-14T10:04:49.069Z,29.00
2018-08-14T10:07:25.620Z,29.10
2018-08-14T10:09:59.037Z,29.10
2018-08-14T10:12:31.505Z,29.10
2018-08-14T10:15:04.013Z,29.20
2018-08-14T10:17:36.351Z,29.40
2018-08-14T10:20:11.741Z,29.40
2018-08-14T10:22:44.060Z,29.40
2018-08-14T10:25:16.557Z,29.40
2018-08-14T10:27:48.759Z,29.50
2018-08-14T10:30:21.302Z,29.70
2018-08-14T10:32:54.536Z,29.70
2018-08-14T10:35:28.534Z,29.70
2018-08-14T10:38:01.043Z,29.50
2018-08-14T10:40:34.108Z,29.60
2018-08-14T10:43:06.950Z,29.60
2018-08-14T10:45:39.415Z,29.50
2018-08-14T10:48:11.832Z,29.60
2018-08-14T10:50:45.079Z,29.60
2018-08-14T10:53:17.396Z,29.70
2018-08-14T10:55:49.610Z,29.80
2018-08-14T10:58:21.933Z,29.90
2018-08-14T11:00:54.072Z,30.00
2018-08-14T11:03:26.299Z,29.90
2018-08-14T11:05:58.810Z,29.90
2018-08-14T11:08:31.792Z,29.90
2018-08-14T11:11:08.109Z,29.90
2018-08-14T11:13:40.386Z,29.80
2018-08-14T11:16:12.661Z,29.70
2018-08-14T11:18:46.118Z,29.70
2018-08-14T11:21:18.225Z,29.60
2018-08-14T11:23:50.861Z,29.60
2018-08-14T11:26:23.559Z,29.70
2018-08-14T11:28:56.749Z,29.90
2018-08-14T11:31:29.407Z,29.90
2018-08-14T11:34:02.059Z,30.10
2018-08-14T11:36:35.257Z,30.20
2018-08-14T11:39:11.185Z,30.30
2018-08-14T11:41:43.089Z,30.40
2018-08-14T11:44:15.106Z,30.60
2018-08-14T11:46:47.721Z,30.60
2018-08-14T11:49:21.465Z,30.60
2018-08-14T11:51:53.461Z,30.70
2018-08-14T11:54:25.558Z,31.00
2018-08-14T11:56:57.812Z,31.40
2018-08-14T11:59:29.984Z,31.40
2018-08-14T12:02:02.026Z,31.30
2018-08-14T12:04:33.916Z,31.30
2018-08-14T12:07:06.424Z,31.20
2018-08-14T12:09:39.626Z,30.80
2018-08-14T12:12:12.612Z,30.60
2018-08-14T12:14:46.293Z,30.50
2018-08-14T12:17:18.465Z,30.50
2018-08-14T12:19:50.864Z,30.40
2018-08-14T12:22:23.338Z,30.40
2018-08-14T12:24:56.183Z,30.30
2018-08-14T12:27:28.619Z,30.10
2018-08-14T12:30:02.066Z,30.00
2018-08-14T12:32:34.523Z,29.90
2018-08-14T12:35:08.370Z,29.90
2018-08-14T12:37:41.783Z,29.90
2018-08-14T12:40:15.159Z,29.80
2018-08-14T12:42:47.409Z,29.70
2018-08-14T12:45:22.860Z,29.60
2018-08-14T12:47:55.646Z,29.50
2018-08-14T12:50:27.996Z,29.50
2018-08-14T12:53:00.335Z,29.40
2018-08-14T12:55:32.245Z,29.40
2018-08-14T12:58:04.650Z,29.40
2018-08-14T13:00:37.046Z,29.50
2018-08-14T13:03:09.512Z,29.50
2018-08-14T13:05:41.600Z,29.70
2018-08-14T13:08:14.020Z,30.00
2018-08-14T13:10:46.261Z,30.20
2018-08-14T13:13:18.587Z,30.20
2018-08-14T13:15:50.863Z,30.30
2018-08-14T13:18:23.270Z,30.30
2018-08-14T13:20:55.515Z,30.30
2018-08-14T13:23:27.698Z,30.10
2018-08-14T13:25:59.783Z,30.00
2018-08-14T13:28:32.037Z,30.00
2018-08-14T13:31:04.478Z,29.90
2018-08-14T13:33:36.610Z,29.80
2018-08-14T13:36:09.319Z,29.70
2018-08-14T13:38:41.406Z,29.60
2018-08-14T13:41:14.043Z,29.50
2018-08-14T13:43:46.343Z,29.40
2018-08-14T13:46:18.659Z,29.30
2018-08-14T13:48:50.835Z,29.10
2018-08-14T13:51:23.452Z,29.10
2018-08-14T13:53:55.974Z,29.10
2018-08-14T13:56:28.942Z,29.10
2018-08-14T13:59:02.254Z,29.00
2018-08-14T14:01:34.931Z,28.90
2018-08-14T14:04:07.433Z,28.80
2018-08-14T14:06:39.634Z,28.60
2018-08-14T14:09:12.981Z,28.50
2018-08-14T14:11:45.423Z,28.30
2018-08-14T14:14:17.784Z,28.20
2018-08-14T14:16:50.085Z,28.10
2018-08-14T14:19:22.340Z,28.10
2018-08-14T14:21:54.545Z,28.10
2018-08-14T14:24:27.014Z,28.10
2018-08-14T14:26:59.432Z,28.10
2018-08-14T14:29:31.967Z,28.00
2018-08-14T14:32:03.877Z,28.00
2018-08-14T14:34:35.876Z,27.90
2018-08-14T14:37:08.150Z,27.90
2018-08-14T14:39:41.680Z,27.80
2018-08-14T14:42:13.979Z,27.60
2018-08-14T14:44:46.228Z,27.60
2018-08-14T14:47:18.664Z,27.60
2018-08-14T14:49:50.850Z,27.60
2018-08-14T14:52:23.228Z,27.50
2018-08-14T14:54:55.597Z,27.40
2018-08-14T14:57:27.667Z,27.30
2018-08-14T15:00:01.063Z,27.30
2018-08-14T15:02:33.186Z,27.20
2018-08-14T15:05:05.858Z,27.20
2018-08-14T15:07:38.509Z,27.20
2018-08-14T15:10:11.148Z,27.20
2018-08-14T15:12:43.661Z,27.10
2018-08-14T15:15:16.282Z,27.20
2018-08-14T15:17:48.862Z,27.20
2018-08-14T15:20:23.950Z,27.10
2018-08-14T15:22:58.968Z,27.00
2018-08-14T15:25:32.569Z,27.00
2018-08-14T15:29:11.327Z,27.00
2018-08-14T15:31:53.639Z,27.00
2018-08-14T15:34:28.382Z,26.90
2018-08-14T15:37:05.765Z,26.90
2018-08-14T15:39:38.355Z,26.90
2018-08-14T15:42:10.636Z,27.00
2018-08-14T15:44:43.408Z,27.10
2018-08-14T15:47:22.099Z,27.20
2018-08-14T15:49:55.256Z,27.30
2018-08-14T15:52:30.229Z,27.30
2018-08-14T15:55:03.769Z,27.30
2018-08-14T15:57:36.271Z,27.30
2018-08-14T16:00:08.628Z,27.30
2018-08-14T16:02:41.137Z,27.20
2018-08-14T16:05:14.379Z,27.30
2018-08-14T16:07:46.441Z,27.30
2018-08-14T16:10:18.566Z,27.30
2018-08-14T16:12:50.756Z,27.20
2018-08-14T16:15:23.709Z,27.10
2018-08-14T16:17:55.777Z,27.00
2018-08-14T16:20:28.481Z,26.90
2018-08-14T16:23:01.241Z,26.80
2018-08-14T16:25:33.551Z,26.70
2018-08-14T16:28:05.896Z,26.60
2018-08-14T16:30:38.205Z,26.50
2018-08-14T16:33:10.507Z,26.40
2018-08-14T16:35:42.682Z,26.30
2018-08-14T16:38:15.238Z,26.20
2018-08-14T16:40:48.289Z,26.20
2018-08-14T16:43:20.410Z,26.10
2018-08-14T16:45:52.567Z,26.00
2018-08-14T16:48:25.201Z,25.90
2018-08-14T16:50:57.776Z,25.90
2018-08-14T16:53:30.082Z,25.80
2018-08-14T16:56:02.338Z,25.70
2018-08-14T16:58:34.552Z,25.60
2018-08-14T17:01:06.982Z,25.60
2018-08-14T17:03:39.106Z,25.60
2018-08-14T17:06:11.294Z,25.50
2018-08-14T17:08:43.563Z,25.50
2018-08-14T17:11:15.618Z,25.30
2018-08-14T17:13:47.560Z,25.20
2018-08-14T17:16:20.346Z,25.10
2018-08-14T17:18:53.173Z,25.10
2018-08-14T17:21:22.615Z,25.00
2018-08-14T17:23:54.719Z,25.00
2018-08-14T17:26:26.874Z,24.90
2018-08-14T17:28:59.887Z,24.80
2018-08-14T17:31:33.116Z,24.70
2018-08-14T17:34:07.116Z,24.60
2018-08-14T17:36:39.327Z,24.60
2018-08-14T17:39:12.823Z,24.60
2018-08-14T17:41:45.262Z,24.50
2018-08-14T17:44:17.213Z,24.50
2018-08-14T17:46:49.542Z,24.40
2018-08-14T17:52:30.066Z,24.30
2018-08-14T17:55:04.552Z,24.10
2018-08-14T17:57:37.417Z,24.00
2018-08-14T18:00:24.212Z,23.90
2018-08-14T18:03:07.234Z,23.70
2018-08-14T18:05:40.519Z,23.70
2018-08-14T18:08:12.872Z,23.60
2018-08-14T18:10:47.946Z,23.50
2018-08-14T18:13:22.459Z,23.30
2018-08-14T18:15:55.235Z,23.30
2018-08-14T18:18:28.496Z,23.20
2018-08-14T18:21:00.816Z,23.10
2018-08-14T18:23:33.120Z,23.00
2018-08-14T18:26:05.648Z,23.00
2018-08-14T18:28:40.859Z,23.00
2018-08-14T18:31:13.875Z,22.90
2018-08-14T18:33:46.449Z,22.80
2018-08-14T18:36:18.933Z,22.80
2018-08-14T18:38:51.355Z,22.80
2018-08-14T18:41:24.649Z,22.70
2018-08-14T18:43:57.094Z,22.70
2018-08-14T18:46:30.622Z,22.60
2018-08-14T18:49:02.940Z,22.50
2018-08-14T18:51:35.118Z,22.40
2018-08-14T18:54:09.039Z,22.50
2018-08-14T18:56:42.046Z,22.50
2018-08-14T18:59:14.987Z,22.40
2018-08-14T19:01:49.836Z,22.30
2018-08-14T19:04:22.770Z,22.20
2018-08-14T19:06:55.053Z,22.20
2018-08-14T19:09:27.769Z,22.10
2018-08-14T19:12:01.741Z,22.00
2018-08-14T19:14:35.691Z,21.90
2018-08-14T19:17:08.508Z,21.90
2018-08-14T19:19:40.787Z,21.80
2018-08-14T19:22:20.788Z,21.70
2018-08-14T19:24:54.256Z,21.70
2018-08-14T19:27:30.302Z,21.60
2018-08-14T19:30:03.480Z,21.60
2018-08-14T19:32:37.405Z,21.50
2018-08-14T19:35:11.895Z,21.50
2018-08-14T19:37:45.427Z,21.50
2018-08-14T19:40:23.608Z,21.50
2018-08-14T19:42:56.472Z,21.50
2018-08-14T19:45:30.205Z,21.40
2018-08-14T19:48:03.229Z,21.40
2018-08-14T19:50:36.429Z,21.30
2018-08-14T19:53:10.644Z,21.30
2018-08-14T19:55:44.541Z,21.20
2018-08-14T19:58:16.859Z,21.10
2018-08-14T20:00:50.421Z,21.10
2018-08-14T20:03:22.911Z,21.00
2018-08-14T20:05:55.192Z,20.90
2018-08-14T20:08:27.918Z,20.90
2018-08-14T20:11:01.800Z,20.70
2018-08-14T20:13:34.196Z,20.70
2018-08-14T20:16:14.055Z,20.70
2018-08-14T20:18:47.300Z,20.60
2018-08-14T20:21:25.078Z,20.40
2018-08-14T20:23:59.521Z,20.40
2018-08-14T20:26:34.227Z,20.30
2018-08-14T20:29:08.008Z,20.30
2018-08-14T20:31:43.252Z,20.20
2018-08-14T20:34:17.458Z,20.20
2018-08-14T20:36:54.488Z,20.00
2018-08-14T20:39:29.102Z,19.90
2018-08-14T20:42:07.229Z,19.80
2018-08-14T20:44:40.179Z,19.70
2018-08-14T20:47:12.905Z,19.60
2018-08-14T20:49:48.143Z,19.60
2018-08-14T20:52:23.664Z,19.50
2018-08-14T20:54:56.857Z,19.50
2018-08-14T20:57:29.871Z,19.50
2018-08-14T21:00:03.819Z,19.50
2018-08-14T21:02:37.544Z,19.40
2018-08-14T21:05:11.481Z,19.30
2018-08-14T21:07:45.608Z,19.30
2018-08-14T21:10:19.771Z,19.30
2018-08-14T21:12:57.235Z,19.20
2018-08-14T21:15:37.636Z,19.20
2018-08-14T21:18:12.052Z,19.20
2018-08-14T21:20:47.548Z,19.20
2018-08-14T21:23:22.581Z,19.20
2018-08-14T21:25:55.702Z,19.10
2018-08-14T21:28:36.921Z,19.10
2018-08-14T21:31:11.955Z,19.10
2018-08-14T21:33:50.319Z,19.10
2018-08-14T21:36:24.379Z,19.10
2018-08-14T21:38:57.804Z,19.00
2018-08-14T21:41:32.089Z,18.90
2018-08-14T21:44:04.553Z,19.00
2018-08-14T21:46:36.942Z,19.00
2018-08-14T21:49:10.110Z,19.00
2018-08-14T21:51:42.798Z,18.90
2018-08-14T21:54:16.313Z,18.90
2018-08-14T21:56:48.778Z,18.80
2018-08-14T21:59:21.250Z,18.80
2018-08-14T22:01:54.078Z,18.70
2018-08-14T22:04:27.630Z,18.70
2018-08-14T22:07:00.067Z,18.70
2018-08-14T22:09:32.991Z,18.60
2018-08-14T22:12:06.073Z,18.50
2018-08-14T22:14:39.400Z,18.50
2018-08-14T22:17:12.095Z,18.50
2018-08-14T22:19:44.183Z,18.50
2018-08-14T22:22:17.688Z,18.50
2018-08-14T22:24:51.321Z,18.60
2018-08-14T22:27:23.357Z,18.50
2018-08-14T22:29:56.866Z,18.60
2018-08-14T22:32:29.424Z,18.50
2018-08-14T22:35:01.670Z,18.50
2018-08-14T22:37:33.820Z,18.50
2018-08-14T22:40:06.163Z,18.40
2018-08-14T22:42:39.101Z,18.20
2018-08-14T22:45:11.917Z,18.20
2018-08-14T22:47:44.092Z,18.20
2018-08-14T22:50:16.244Z,18.20
2018-08-14T22:52:48.545Z,18.20
2018-08-14T22:55:21.021Z,18.20
2018-08-14T22:57:53.836Z,18.10
2018-08-14T23:00:25.649Z,18.10
2018-08-14T23:02:57.633Z,18.10
2018-08-14T23:05:29.646Z,18.00
2018-08-14T23:08:01.624Z,18.00
2018-08-14T23:10:33.879Z,17.90
2018-08-14T23:13:06.459Z,17.80
2018-08-14T23:15:38.584Z,17.80
2018-08-14T23:18:10.672Z,17.80
2018-08-14T23:20:42.430Z,17.90
2018-08-14T23:23:14.254Z,17.90
2018-08-14T23:25:47.406Z,17.80
2018-08-14T23:28:19.888Z,17.80
2018-08-14T23:30:52.246Z,17.80
2018-08-14T23:33:24.456Z,17.80
2018-08-14T23:35:56.892Z,17.80
2018-08-14T23:38:29.202Z,17.80
2018-08-14T23:41:02.118Z,17.70
2018-08-14T23:43:34.331Z,17.70
2018-08-14T23:46:06.593Z,17.70
2018-08-14T23:48:38.612Z,17.70
2018-08-14T23:51:10.830Z,17.70
2018-08-14T23:53:42.822Z,17.60
2018-08-14T23:56:15.513Z,17.60
2018-08-14T23:58:48.820Z,17.60
